sensor_id;sensor_type;location;lat;lon;timestamp;P1;durP1;ratioP1;P2;durP2;ratioP2
1024;SDS011;501;48.214;11.350;2022-11-15T00:00:51;15.00;;;12.43;;
1024;SDS011;501;48.214;11.350;2022-11-15T00:03:18;12.47;;;11.17;;
1024;SDS011;501;48.214;11.350;2022-11-15T00:05:46;15.30;;;11.77;;
1024;SDS011;501;48.214;11.350;2022-11-15T00:08:12;12.60;;;11.47;;
1024;SDS011;501;48.214;11.350;2022-11-15T00:10:38;12.27;;;11.00;;
1024;SDS011;501;48.214;11.350;2022-11-15T00:13:04;14.40;;;10.33;;
1024;SDS011;501;48.214;11.350;2022-11-15T00:15:31;14.20;;;11.40;;
1024;SDS011;501;48.214;11.350;2022-11-15T00:17:59;12.50;;;10.93;;
1024;SDS011;501;48.214;11.350;2022-11-15T00:20:24;10.97;;;9.73;;
1024;SDS011;501;48.214;11.350;2022-11-15T00:22:50;13.00;;;10.20;;
1024;SDS011;501;48.214;11.350;2022-11-15T00:25:15;13.17;;;10.90;;
1024;SDS011;501;48.214;11.350;2022-11-15T00:27:41;14.33;;;10.60;;
1024;SDS011;501;48.214;11.350;2022-11-15T00:30:07;10.80;;;9.70;;
1024;SDS011;501;48.214;11.350;2022-11-15T00:32:33;12.60;;;10.03;;
1024;SDS011;501;48.214;11.350;2022-11-15T00:34:58;11.20;;;10.00;;
1024;SDS011;501;48.214;11.350;2022-11-15T00:37:24;9.97;;;8.83;;
1024;SDS011;501;48.214;11.350;2022-11-15T00:39:49;11.27;;;9.67;;
1024;SDS011;501;48.214;11.350;2022-11-15T00:42:15;10.07;;;8.60;;
1024;SDS011;501;48.214;11.350;2022-11-15T00:44:41;11.83;;;10.10;;
1024;SDS011;501;48.214;11.350;2022-11-15T00:47:06;11.60;;;9.70;;
1024;SDS011;501;48.214;11.350;2022-11-15T00:49:32;11.63;;;9.50;;
1024;SDS011;501;48.214;11.350;2022-11-15T00:52:00;10.40;;;9.10;;
1024;SDS011;501;48.214;11.350;2022-11-15T00:54:26;13.20;;;9.93;;
1024;SDS011;501;48.214;11.350;2022-11-15T00:56:51;11.47;;;9.60;;
1024;SDS011;501;48.214;11.350;2022-11-15T00:59:17;19.10;;;9.90;;
1024;SDS011;501;48.214;11.350;2022-11-15T01:01:42;10.53;;;9.50;;
1024;SDS011;501;48.214;11.350;2022-11-15T01:04:08;13.17;;;10.00;;
1024;SDS011;501;48.214;11.350;2022-11-15T01:06:34;12.83;;;10.37;;
1024;SDS011;501;48.214;11.350;2022-11-15T01:08:59;13.37;;;9.00;;
1024;SDS011;501;48.214;11.350;2022-11-15T01:11:25;12.80;;;11.40;;
1024;SDS011;501;48.214;11.350;2022-11-15T01:13:50;14.27;;;10.47;;
1024;SDS011;501;48.214;11.350;2022-11-15T01:16:17;10.57;;;9.47;;
1024;SDS011;501;48.214;11.350;2022-11-15T01:18:44;10.30;;;8.73;;
1024;SDS011;501;48.214;11.350;2022-11-15T01:21:11;10.70;;;9.70;;
1024;SDS011;501;48.214;11.350;2022-11-15T01:23:39;11.60;;;10.00;;
1024;SDS011;501;48.214;11.350;2022-11-15T01:26:05;13.70;;;9.70;;
1024;SDS011;501;48.214;11.350;2022-11-15T01:28:33;11.10;;;10.00;;
1024;SDS011;501;48.214;11.350;2022-11-15T01:31:01;12.83;;;9.60;;
1024;SDS011;501;48.214;11.350;2022-11-15T01:33:28;12.83;;;9.10;;
1024;SDS011;501;48.214;11.350;2022-11-15T01:35:54;13.23;;;10.60;;
1024;SDS011;501;48.214;11.350;2022-11-15T01:38:23;11.40;;;9.07;;
1024;SDS011;501;48.214;11.350;2022-11-15T01:40:48;11.07;;;9.27;;
1024;SDS011;501;48.214;11.350;2022-11-15T01:43:18;10.83;;;8.90;;
1024;SDS011;501;48.214;11.350;2022-11-15T01:45:49;9.67;;;8.50;;
1024;SDS011;501;48.214;11.350;2022-11-15T01:48:20;12.70;;;9.50;;
1024;SDS011;501;48.214;11.350;2022-11-15T01:50:49;10.03;;;9.10;;
1024;SDS011;501;48.214;11.350;2022-11-15T01:53:16;11.60;;;9.00;;
1024;SDS011;501;48.214;11.350;2022-11-15T01:55:44;10.70;;;7.90;;
1024;SDS011;501;48.214;11.350;2022-11-15T01:58:09;10.17;;;8.90;;
1024;SDS011;501;48.214;11.350;2022-11-15T02:00:35;9.80;;;8.80;;
1024;SDS011;501;48.214;11.350;2022-11-15T02:03:01;11.67;;;8.83;;
1024;SDS011;501;48.214;11.350;2022-11-15T02:05:27;12.03;;;8.83;;
1024;SDS011;501;48.214;11.350;2022-11-15T02:07:55;10.63;;;8.90;;
1024;SDS011;501;48.214;11.350;2022-11-15T02:10:21;13.20;;;8.80;;
1024;SDS011;501;48.214;11.350;2022-11-15T02:12:48;10.10;;;8.50;;
1024;SDS011;501;48.214;11.350;2022-11-15T02:15:15;11.73;;;9.17;;
1024;SDS011;501;48.214;11.350;2022-11-15T02:26:10;14.40;;;10.37;;
1024;SDS011;501;48.214;11.350;2022-11-15T02:31:41;10.17;;;8.73;;
1024;SDS011;501;48.214;11.350;2022-11-15T02:36:58;10.97;;;8.43;;
1024;SDS011;501;48.214;11.350;2022-11-15T02:39:35;12.93;;;8.90;;
1024;SDS011;501;48.214;11.350;2022-11-15T02:42:19;14.17;;;9.47;;
1024;SDS011;501;48.214;11.350;2022-11-15T02:45:08;10.23;;;9.13;;
1024;SDS011;501;48.214;11.350;2022-11-15T02:47:39;11.80;;;9.07;;
1024;SDS011;501;48.214;11.350;2022-11-15T02:50:09;11.13;;;9.40;;
1024;SDS011;501;48.214;11.350;2022-11-15T02:52:37;13.93;;;9.70;;
1024;SDS011;501;48.214;11.350;2022-11-15T02:55:03;12.10;;;9.10;;
1024;SDS011;501;48.214;11.350;2022-11-15T03:00:10;10.67;;;8.67;;
1024;SDS011;501;48.214;11.350;2022-11-15T03:02:56;9.57;;;8.30;;
1024;SDS011;501;48.214;11.350;2022-11-15T03:05:46;9.93;;;8.93;;
1024;SDS011;501;48.214;11.350;2022-11-15T03:08:32;10.10;;;8.60;;
1024;SDS011;501;48.214;11.350;2022-11-15T03:11:10;11.00;;;8.50;;
1024;SDS011;501;48.214;11.350;2022-11-15T03:13:47;10.60;;;9.03;;
1024;SDS011;501;48.214;11.350;2022-11-15T03:18:59;10.20;;;8.70;;
1024;SDS011;501;48.214;11.350;2022-11-15T03:21:31;9.90;;;8.80;;
1024;SDS011;501;48.214;11.350;2022-11-15T03:24:00;10.87;;;9.40;;
1024;SDS011;501;48.214;11.350;2022-11-15T03:26:29;10.90;;;8.70;;
1024;SDS011;501;48.214;11.350;2022-11-15T03:28:59;9.90;;;8.30;;
1024;SDS011;501;48.214;11.350;2022-11-15T03:31:31;11.90;;;9.43;;
1024;SDS011;501;48.214;11.350;2022-11-15T03:34:26;10.43;;;9.20;;
1024;SDS011;501;48.214;11.350;2022-11-15T03:36:55;12.77;;;9.23;;
1024;SDS011;501;48.214;11.350;2022-11-15T03:39:20;14.60;;;10.13;;
1024;SDS011;501;48.214;11.350;2022-11-15T03:44:42;9.83;;;8.43;;
1024;SDS011;501;48.214;11.350;2022-11-15T03:47:36;9.37;;;8.20;;
1024;SDS011;501;48.214;11.350;2022-11-15T03:50:13;10.90;;;8.40;;
1024;SDS011;501;48.214;11.350;2022-11-15T03:52:44;10.17;;;8.10;;
1024;SDS011;501;48.214;11.350;2022-11-15T03:55:13;10.13;;;8.40;;
1024;SDS011;501;48.214;11.350;2022-11-15T03:57:40;9.00;;;7.40;;
1024;SDS011;501;48.214;11.350;2022-11-15T04:00:06;8.87;;;7.80;;
1024;SDS011;501;48.214;11.350;2022-11-15T04:02:32;10.70;;;8.50;;
1024;SDS011;501;48.214;11.350;2022-11-15T04:04:58;9.80;;;8.60;;
1024;SDS011;501;48.214;11.350;2022-11-15T04:07:23;11.90;;;9.70;;
1024;SDS011;501;48.214;11.350;2022-11-15T04:09:49;10.73;;;7.97;;
1024;SDS011;501;48.214;11.350;2022-11-15T04:12:34;9.10;;;8.20;;
1024;SDS011;501;48.214;11.350;2022-11-15T04:15:12;10.20;;;8.33;;
1024;SDS011;501;48.214;11.350;2022-11-15T04:17:41;9.20;;;7.63;;
1024;SDS011;501;48.214;11.350;2022-11-15T04:22:58;10.30;;;7.97;;
1024;SDS011;501;48.214;11.350;2022-11-15T04:25:44;9.00;;;8.10;;
1024;SDS011;501;48.214;11.350;2022-11-15T04:28:10;10.67;;;8.13;;
1024;SDS011;501;48.214;11.350;2022-11-15T04:30:36;15.10;;;9.60;;
1024;SDS011;501;48.214;11.350;2022-11-15T04:33:02;11.40;;;8.93;;
1024;SDS011;501;48.214;11.350;2022-11-15T04:35:28;13.60;;;9.07;;
1024;SDS011;501;48.214;11.350;2022-11-15T04:37:54;12.40;;;9.70;;
1024;SDS011;501;48.214;11.350;2022-11-15T04:40:21;11.10;;;8.47;;
1024;SDS011;501;48.214;11.350;2022-11-15T04:42:47;9.07;;;8.07;;
1024;SDS011;501;48.214;11.350;2022-11-15T04:45:12;8.93;;;8.00;;
1024;SDS011;501;48.214;11.350;2022-11-15T04:47:38;11.70;;;8.93;;
1024;SDS011;501;48.214;11.350;2022-11-15T04:50:04;10.70;;;8.90;;
1024;SDS011;501;48.214;11.350;2022-11-15T04:52:30;10.03;;;8.70;;
1024;SDS011;501;48.214;11.350;2022-11-15T04:54:56;12.63;;;8.43;;
1024;SDS011;501;48.214;11.350;2022-11-15T04:57:21;10.67;;;8.20;;
1024;SDS011;501;48.214;11.350;2022-11-15T04:59:47;11.60;;;8.70;;
1024;SDS011;501;48.214;11.350;2022-11-15T05:02:12;10.50;;;9.13;;
1024;SDS011;501;48.214;11.350;2022-11-15T05:04:38;16.37;;;10.43;;
1024;SDS011;501;48.214;11.350;2022-11-15T05:07:04;10.23;;;8.60;;
1024;SDS011;501;48.214;11.350;2022-11-15T05:09:29;10.77;;;8.43;;
1024;SDS011;501;48.214;11.350;2022-11-15T05:11:55;11.40;;;8.97;;
1024;SDS011;501;48.214;11.350;2022-11-15T05:14:20;13.07;;;8.53;;
1024;SDS011;501;48.214;11.350;2022-11-15T05:16:46;12.37;;;7.97;;
1024;SDS011;501;48.214;11.350;2022-11-15T05:19:12;10.73;;;8.90;;
1024;SDS011;501;48.214;11.350;2022-11-15T05:21:37;12.60;;;9.03;;
1024;SDS011;501;48.214;11.350;2022-11-15T05:24:03;10.53;;;8.33;;
1024;SDS011;501;48.214;11.350;2022-11-15T05:26:29;13.10;;;8.47;;
1024;SDS011;501;48.214;11.350;2022-11-15T05:28:56;13.77;;;8.90;;
1024;SDS011;501;48.214;11.350;2022-11-15T05:31:23;9.83;;;8.83;;
1024;SDS011;501;48.214;11.350;2022-11-15T05:33:50;9.87;;;8.40;;
1024;SDS011;501;48.214;11.350;2022-11-15T05:39:06;11.53;;;8.63;;
1024;SDS011;501;48.214;11.350;2022-11-15T05:41:42;10.70;;;9.53;;
1024;SDS011;501;48.214;11.350;2022-11-15T05:44:13;10.93;;;9.43;;
1024;SDS011;501;48.214;11.350;2022-11-15T05:46:42;12.37;;;10.30;;
1024;SDS011;501;48.214;11.350;2022-11-15T05:49:09;12.73;;;10.13;;
1024;SDS011;501;48.214;11.350;2022-11-15T05:51:39;13.57;;;11.17;;
1024;SDS011;501;48.214;11.350;2022-11-15T05:54:08;16.77;;;11.63;;
1024;SDS011;501;48.214;11.350;2022-11-15T05:56:34;14.80;;;10.83;;
1024;SDS011;501;48.214;11.350;2022-11-15T05:59:00;12.43;;;9.77;;
1024;SDS011;501;48.214;11.350;2022-11-15T06:01:26;13.40;;;9.63;;
1024;SDS011;501;48.214;11.350;2022-11-15T06:03:52;12.20;;;9.50;;
1024;SDS011;501;48.214;11.350;2022-11-15T06:06:18;10.17;;;8.70;;
1024;SDS011;501;48.214;11.350;2022-11-15T06:08:44;12.17;;;8.67;;
1024;SDS011;501;48.214;11.350;2022-11-15T06:11:09;10.00;;;8.70;;
1024;SDS011;501;48.214;11.350;2022-11-15T06:13:35;9.13;;;7.60;;
1024;SDS011;501;48.214;11.350;2022-11-15T06:16:01;10.30;;;7.67;;
1024;SDS011;501;48.214;11.350;2022-11-15T06:18:26;11.20;;;7.33;;
1024;SDS011;501;48.214;11.350;2022-11-15T06:20:52;11.50;;;6.80;;
1024;SDS011;501;48.214;11.350;2022-11-15T06:23:18;9.17;;;7.30;;
1024;SDS011;501;48.214;11.350;2022-11-15T06:25:43;7.20;;;6.50;;
1024;SDS011;501;48.214;11.350;2022-11-15T06:28:09;8.93;;;6.33;;
1024;SDS011;501;48.214;11.350;2022-11-15T06:30:35;8.33;;;7.20;;
1024;SDS011;501;48.214;11.350;2022-11-15T06:33:04;7.80;;;7.00;;
1024;SDS011;501;48.214;11.350;2022-11-15T06:35:32;7.73;;;6.23;;
1024;SDS011;501;48.214;11.350;2022-11-15T06:38:05;10.57;;;7.40;;
1024;SDS011;501;48.214;11.350;2022-11-15T06:40:34;10.70;;;7.17;;
1024;SDS011;501;48.214;11.350;2022-11-15T06:43:00;9.03;;;7.00;;
1024;SDS011;501;48.214;11.350;2022-11-15T06:45:30;8.17;;;7.20;;
1024;SDS011;501;48.214;11.350;2022-11-15T06:47:55;10.67;;;7.20;;
1024;SDS011;501;48.214;11.350;2022-11-15T06:50:21;8.73;;;7.50;;
1024;SDS011;501;48.214;11.350;2022-11-15T06:52:47;7.43;;;6.33;;
1024;SDS011;501;48.214;11.350;2022-11-15T06:55:13;6.90;;;6.30;;
1024;SDS011;501;48.214;11.350;2022-11-15T06:57:46;8.47;;;6.53;;
1024;SDS011;501;48.214;11.350;2022-11-15T07:00:15;8.03;;;7.23;;
1024;SDS011;501;48.214;11.350;2022-11-15T07:02:43;9.33;;;6.83;;
1024;SDS011;501;48.214;11.350;2022-11-15T07:05:08;8.77;;;7.20;;
1024;SDS011;501;48.214;11.350;2022-11-15T07:07:34;8.50;;;7.70;;
1024;SDS011;501;48.214;11.350;2022-11-15T07:10:00;9.23;;;7.70;;
1024;SDS011;501;48.214;11.350;2022-11-15T07:12:26;10.90;;;7.50;;
1024;SDS011;501;48.214;11.350;2022-11-15T07:14:51;11.70;;;9.07;;
1024;SDS011;501;48.214;11.350;2022-11-15T07:17:17;14.20;;;9.73;;
1024;SDS011;501;48.214;11.350;2022-11-15T07:19:42;15.03;;;10.40;;
1024;SDS011;501;48.214;11.350;2022-11-15T07:22:08;13.87;;;9.63;;
1024;SDS011;501;48.214;11.350;2022-11-15T07:24:33;15.43;;;10.37;;
1024;SDS011;501;48.214;11.350;2022-11-15T07:26:59;13.60;;;10.87;;
1024;SDS011;501;48.214;11.350;2022-11-15T07:29:25;14.27;;;11.20;;
1024;SDS011;501;48.214;11.350;2022-11-15T07:31:50;13.07;;;10.53;;
1024;SDS011;501;48.214;11.350;2022-11-15T07:34:16;12.60;;;10.33;;
1024;SDS011;501;48.214;11.350;2022-11-15T07:36:41;11.87;;;10.07;;
1024;SDS011;501;48.214;11.350;2022-11-15T07:39:07;17.47;;;10.20;;
1024;SDS011;501;48.214;11.350;2022-11-15T07:41:33;11.47;;;9.23;;
1024;SDS011;501;48.214;11.350;2022-11-15T07:43:58;13.07;;;9.90;;
1024;SDS011;501;48.214;11.350;2022-11-15T07:46:24;11.60;;;8.90;;
1024;SDS011;501;48.214;11.350;2022-11-15T07:48:49;10.07;;;8.50;;
1024;SDS011;501;48.214;11.350;2022-11-15T07:51:15;10.33;;;8.90;;
1024;SDS011;501;48.214;11.350;2022-11-15T07:53:42;15.60;;;7.70;;
1024;SDS011;501;48.214;11.350;2022-11-15T07:56:08;9.30;;;7.30;;
1024;SDS011;501;48.214;11.350;2022-11-15T07:58:34;8.63;;;7.27;;
1024;SDS011;501;48.214;11.350;2022-11-15T08:01:06;7.73;;;6.67;;
1024;SDS011;501;48.214;11.350;2022-11-15T08:03:33;10.83;;;7.47;;
1024;SDS011;501;48.214;11.350;2022-11-15T08:06:00;8.00;;;6.73;;
1024;SDS011;501;48.214;11.350;2022-11-15T08:08:25;7.70;;;6.90;;
1024;SDS011;501;48.214;11.350;2022-11-15T08:10:51;7.53;;;6.60;;
1024;SDS011;501;48.214;11.350;2022-11-15T08:13:16;9.00;;;7.80;;
1024;SDS011;501;48.214;11.350;2022-11-15T08:15:42;10.03;;;7.53;;
1024;SDS011;501;48.214;11.350;2022-11-15T08:18:10;9.40;;;7.00;;
1024;SDS011;501;48.214;11.350;2022-11-15T08:20:38;9.43;;;6.33;;
1024;SDS011;501;48.214;11.350;2022-11-15T08:23:04;11.20;;;7.40;;
1024;SDS011;501;48.214;11.350;2022-11-15T08:25:30;11.53;;;7.47;;
1024;SDS011;501;48.214;11.350;2022-11-15T08:27:58;7.80;;;7.00;;
1024;SDS011;501;48.214;11.350;2022-11-15T08:30:25;7.63;;;6.90;;
1024;SDS011;501;48.214;11.350;2022-11-15T08:32:52;10.77;;;7.87;;
1024;SDS011;501;48.214;11.350;2022-11-15T08:35:19;8.50;;;7.50;;
1024;SDS011;501;48.214;11.350;2022-11-15T08:37:45;13.53;;;8.33;;
1024;SDS011;501;48.214;11.350;2022-11-15T08:40:11;8.10;;;7.30;;
1024;SDS011;501;48.214;11.350;2022-11-15T08:42:38;8.87;;;7.50;;
1024;SDS011;501;48.214;11.350;2022-11-15T08:45:05;7.60;;;6.80;;
1024;SDS011;501;48.214;11.350;2022-11-15T08:47:31;10.97;;;7.63;;
1024;SDS011;501;48.214;11.350;2022-11-15T08:49:57;14.57;;;8.47;;
1024;SDS011;501;48.214;11.350;2022-11-15T08:52:23;8.60;;;7.60;;
1024;SDS011;501;48.214;11.350;2022-11-15T08:54:49;9.63;;;7.50;;
1024;SDS011;501;48.214;11.350;2022-11-15T08:57:14;11.67;;;7.73;;
1024;SDS011;501;48.214;11.350;2022-11-15T08:59:40;9.57;;;7.90;;
1024;SDS011;501;48.214;11.350;2022-11-15T09:02:06;11.50;;;8.37;;
1024;SDS011;501;48.214;11.350;2022-11-15T09:04:36;12.83;;;8.27;;
1024;SDS011;501;48.214;11.350;2022-11-15T09:07:02;8.63;;;7.83;;
1024;SDS011;501;48.214;11.350;2022-11-15T09:09:27;8.97;;;8.00;;
1024;SDS011;501;48.214;11.350;2022-11-15T09:11:53;8.70;;;7.77;;
1024;SDS011;501;48.214;11.350;2022-11-15T09:14:18;10.83;;;7.90;;
1024;SDS011;501;48.214;11.350;2022-11-15T09:16:44;11.17;;;8.10;;
1024;SDS011;501;48.214;11.350;2022-11-15T09:19:09;11.40;;;8.80;;
1024;SDS011;501;48.214;11.350;2022-11-15T09:21:35;9.80;;;7.83;;
1024;SDS011;501;48.214;11.350;2022-11-15T09:24:01;9.90;;;8.30;;
1024;SDS011;501;48.214;11.350;2022-11-15T09:26:27;15.60;;;9.40;;
1024;SDS011;501;48.214;11.350;2022-11-15T09:28:52;9.77;;;8.87;;
1024;SDS011;501;48.214;11.350;2022-11-15T09:31:18;14.80;;;10.50;;
1024;SDS011;501;48.214;11.350;2022-11-15T09:33:44;20.00;;;14.70;;
1024;SDS011;501;48.214;11.350;2022-11-15T09:36:11;15.03;;;11.13;;
1024;SDS011;501;48.214;11.350;2022-11-15T09:38:37;10.93;;;9.57;;
1024;SDS011;501;48.214;11.350;2022-11-15T09:46:50;12.33;;;8.97;;
1024;SDS011;501;48.214;11.350;2022-11-15T09:49:18;10.53;;;9.00;;
1024;SDS011;501;48.214;11.350;2022-11-15T09:51:45;10.03;;;9.00;;
1024;SDS011;501;48.214;11.350;2022-11-15T09:54:17;10.37;;;9.33;;
1024;SDS011;501;48.214;11.350;2022-11-15T09:56:45;12.60;;;10.10;;
1024;SDS011;501;48.214;11.350;2022-11-15T10:04:22;10.90;;;9.67;;
1024;SDS011;501;48.214;11.350;2022-11-15T10:07:02;12.13;;;9.47;;
1024;SDS011;501;48.214;11.350;2022-11-15T10:09:51;11.20;;;10.10;;
1024;SDS011;501;48.214;11.350;2022-11-15T10:12:23;12.07;;;10.20;;
1024;SDS011;501;48.214;11.350;2022-11-15T10:14:51;10.27;;;9.20;;
1024;SDS011;501;48.214;11.350;2022-11-15T10:27:34;13.33;;;9.37;;
1024;SDS011;501;48.214;11.350;2022-11-15T10:30:00;12.43;;;8.80;;
1024;SDS011;501;48.214;11.350;2022-11-15T10:32:26;10.80;;;8.30;;
1024;SDS011;501;48.214;11.350;2022-11-15T10:34:52;11.63;;;9.00;;
1024;SDS011;501;48.214;11.350;2022-11-15T10:37:27;10.97;;;8.53;;
1024;SDS011;501;48.214;11.350;2022-11-15T10:40:14;14.63;;;8.80;;
1024;SDS011;501;48.214;11.350;2022-11-15T10:42:48;10.43;;;7.97;;
1024;SDS011;501;48.214;11.350;2022-11-15T10:45:29;9.73;;;8.70;;
1024;SDS011;501;48.214;11.350;2022-11-15T10:48:18;14.63;;;8.37;;
1024;SDS011;501;48.214;11.350;2022-11-15T10:50:47;10.23;;;9.20;;
1024;SDS011;501;48.214;11.350;2022-11-15T10:53:20;10.23;;;9.20;;
1024;SDS011;501;48.214;11.350;2022-11-15T10:55:53;10.10;;;8.90;;
1024;SDS011;501;48.214;11.350;2022-11-15T11:00:52;12.23;;;8.53;;
1024;SDS011;501;48.214;11.350;2022-11-15T11:03:29;10.17;;;9.10;;
1024;SDS011;501;48.214;11.350;2022-11-15T11:06:04;10.00;;;8.70;;
1024;SDS011;501;48.214;11.350;2022-11-15T11:08:37;23.40;;;8.57;;
1024;SDS011;501;48.214;11.350;2022-11-15T11:11:03;9.20;;;7.57;;
1024;SDS011;501;48.214;11.350;2022-11-15T11:24:29;10.83;;;8.60;;
1024;SDS011;501;48.214;11.350;2022-11-15T11:30:06;9.70;;;5.97;;
1024;SDS011;501;48.214;11.350;2022-11-15T11:32:56;9.07;;;6.00;;
1024;SDS011;501;48.214;11.350;2022-11-15T11:41:07;5.67;;;5.13;;
1024;SDS011;501;48.214;11.350;2022-11-15T11:46:45;5.67;;;4.37;;
1024;SDS011;501;48.214;11.350;2022-11-15T11:49:19;9.37;;;5.97;;
1024;SDS011;501;48.214;11.350;2022-11-15T11:51:54;7.23;;;6.30;;
1024;SDS011;501;48.214;11.350;2022-11-15T11:54:46;10.90;;;5.20;;
1024;SDS011;501;48.214;11.350;2022-11-15T11:57:47;5.40;;;4.50;;
1024;SDS011;501;48.214;11.350;2022-11-15T12:00:22;5.40;;;4.60;;
1024;SDS011;501;48.214;11.350;2022-11-15T12:05:39;7.67;;;5.30;;
1024;SDS011;501;48.214;11.350;2022-11-15T12:11:16;3.73;;;3.40;;
1024;SDS011;501;48.214;11.350;2022-11-15T12:13:48;3.53;;;2.80;;
1024;SDS011;501;48.214;11.350;2022-11-15T12:16:22;3.57;;;2.90;;
1024;SDS011;501;48.214;11.350;2022-11-15T12:18:53;3.63;;;3.10;;
1024;SDS011;501;48.214;11.350;2022-11-15T12:26:47;3.70;;;3.23;;
1024;SDS011;501;48.214;11.350;2022-11-15T12:29:41;4.13;;;3.80;;
1024;SDS011;501;48.214;11.350;2022-11-15T12:34:58;3.90;;;3.37;;
1024;SDS011;501;48.214;11.350;2022-11-15T12:45:23;3.23;;;2.80;;
1024;SDS011;501;48.214;11.350;2022-11-15T12:47:49;2.63;;;2.43;;
1024;SDS011;501;48.214;11.350;2022-11-15T12:50:15;2.70;;;2.40;;
1024;SDS011;501;48.214;11.350;2022-11-15T12:53:20;3.23;;;2.93;;
1024;SDS011;501;48.214;11.350;2022-11-15T12:55:46;3.50;;;3.17;;
1024;SDS011;501;48.214;11.350;2022-11-15T12:58:44;3.50;;;3.17;;
1024;SDS011;501;48.214;11.350;2022-11-15T13:12:11;3.33;;;2.53;;
1024;SDS011;501;48.214;11.350;2022-11-15T13:14:47;2.80;;;2.43;;
1024;SDS011;501;48.214;11.350;2022-11-15T13:19:48;3.50;;;3.00;;
1024;SDS011;501;48.214;11.350;2022-11-15T13:22:20;3.50;;;2.63;;
1024;SDS011;501;48.214;11.350;2022-11-15T13:25:11;3.17;;;2.97;;
1024;SDS011;501;48.214;11.350;2022-11-15T13:27:55;5.63;;;2.80;;
1024;SDS011;501;48.214;11.350;2022-11-15T13:30:25;3.00;;;2.70;;
1024;SDS011;501;48.214;11.350;2022-11-15T13:32:53;3.00;;;2.70;;
1024;SDS011;501;48.214;11.350;2022-11-15T13:35:20;4.43;;;2.50;;
1024;SDS011;501;48.214;11.350;2022-11-15T13:37:52;2.70;;;2.50;;
1024;SDS011;501;48.214;11.350;2022-11-15T13:42:47;2.60;;;2.40;;
1024;SDS011;501;48.214;11.350;2022-11-15T13:45:13;4.27;;;2.87;;
1024;SDS011;501;48.214;11.350;2022-11-15T13:47:41;2.40;;;2.20;;
1024;SDS011;501;48.214;11.350;2022-11-15T13:50:10;4.97;;;2.80;;
1024;SDS011;501;48.214;11.350;2022-11-15T13:52:37;3.40;;;3.10;;
1024;SDS011;501;48.214;11.350;2022-11-15T13:55:10;3.33;;;2.80;;
1024;SDS011;501;48.214;11.350;2022-11-15T13:57:44;6.20;;;3.50;;
1024;SDS011;501;48.214;11.350;2022-11-15T14:02:55;5.03;;;4.20;;
1024;SDS011;501;48.214;11.350;2022-11-15T14:05:23;5.07;;;4.57;;
1024;SDS011;501;48.214;11.350;2022-11-15T14:07:59;4.43;;;4.13;;
1024;SDS011;501;48.214;11.350;2022-11-15T14:10:45;6.10;;;5.60;;
1024;SDS011;501;48.214;11.350;2022-11-15T14:15:53;5.80;;;4.53;;
1024;SDS011;501;48.214;11.350;2022-11-15T14:18:39;6.03;;;5.17;;
1024;SDS011;501;48.214;11.350;2022-11-15T14:21:08;6.00;;;5.40;;
1024;SDS011;501;48.214;11.350;2022-11-15T14:23:34;5.20;;;4.70;;
1024;SDS011;501;48.214;11.350;2022-11-15T14:26:00;5.83;;;5.03;;
1024;SDS011;501;48.214;11.350;2022-11-15T14:30:52;5.87;;;5.07;;
1024;SDS011;501;48.214;11.350;2022-11-15T14:33:21;4.60;;;4.20;;
1024;SDS011;501;48.214;11.350;2022-11-15T14:35:55;5.60;;;5.10;;
1024;SDS011;501;48.214;11.350;2022-11-15T14:38:23;5.07;;;4.50;;
1024;SDS011;501;48.214;11.350;2022-11-15T14:40:51;4.80;;;4.30;;
1024;SDS011;501;48.214;11.350;2022-11-15T14:43:18;4.97;;;4.30;;
1024;SDS011;501;48.214;11.350;2022-11-15T14:45:44;5.73;;;4.67;;
1024;SDS011;501;48.214;11.350;2022-11-15T14:48:10;6.53;;;5.40;;
1024;SDS011;501;48.214;11.350;2022-11-15T14:50:36;6.20;;;4.67;;
1024;SDS011;501;48.214;11.350;2022-11-15T14:53:01;6.30;;;5.70;;
1024;SDS011;501;48.214;11.350;2022-11-15T14:55:29;6.50;;;4.90;;
1024;SDS011;501;48.214;11.350;2022-11-15T14:57:58;5.80;;;5.10;;
1024;SDS011;501;48.214;11.350;2022-11-15T15:00:24;8.50;;;5.30;;
1024;SDS011;501;48.214;11.350;2022-11-15T15:02:50;5.90;;;5.20;;
1024;SDS011;501;48.214;11.350;2022-11-15T15:05:19;5.63;;;4.50;;
1024;SDS011;501;48.214;11.350;2022-11-15T15:07:47;6.03;;;5.43;;
1024;SDS011;501;48.214;11.350;2022-11-15T15:10:13;7.40;;;5.40;;
1024;SDS011;501;48.214;11.350;2022-11-15T15:12:40;6.90;;;5.37;;
1024;SDS011;501;48.214;11.350;2022-11-15T15:15:08;5.27;;;4.77;;
1024;SDS011;501;48.214;11.350;2022-11-15T15:17:38;5.50;;;4.83;;
1024;SDS011;501;48.214;11.350;2022-11-15T15:20:03;19.00;;;5.33;;
1024;SDS011;501;48.214;11.350;2022-11-15T15:22:29;6.20;;;4.77;;
1024;SDS011;501;48.214;11.350;2022-11-15T15:24:55;5.63;;;4.43;;
1024;SDS011;501;48.214;11.350;2022-11-15T15:27:21;7.10;;;5.20;;
1024;SDS011;501;48.214;11.350;2022-11-15T15:29:46;6.30;;;5.20;;
1024;SDS011;501;48.214;11.350;2022-11-15T15:32:12;9.13;;;4.47;;
1024;SDS011;501;48.214;11.350;2022-11-15T15:34:38;5.13;;;4.63;;
1024;SDS011;501;48.214;11.350;2022-11-15T15:39:51;4.93;;;4.53;;
1024;SDS011;501;48.214;11.350;2022-11-15T15:42:18;5.27;;;4.77;;
1024;SDS011;501;48.214;11.350;2022-11-15T15:44:45;6.90;;;5.37;;
1024;SDS011;501;48.214;11.350;2022-11-15T15:47:12;11.73;;;4.77;;
1024;SDS011;501;48.214;11.350;2022-11-15T15:49:40;8.03;;;5.53;;
1024;SDS011;501;48.214;11.350;2022-11-15T15:52:06;5.33;;;4.80;;
1024;SDS011;501;48.214;11.350;2022-11-15T15:54:31;5.90;;;5.40;;
1024;SDS011;501;48.214;11.350;2022-11-15T15:56:57;6.70;;;5.27;;
1024;SDS011;501;48.214;11.350;2022-11-15T15:59:22;6.80;;;6.07;;
1024;SDS011;501;48.214;11.350;2022-11-15T16:01:48;6.43;;;5.20;;
1024;SDS011;501;48.214;11.350;2022-11-15T16:04:13;8.60;;;6.93;;
1024;SDS011;501;48.214;11.350;2022-11-15T16:06:39;13.73;;;11.20;;
1024;SDS011;501;48.214;11.350;2022-11-15T16:09:10;12.03;;;8.63;;
1024;SDS011;501;48.214;11.350;2022-11-15T16:11:41;14.40;;;10.50;;
1024;SDS011;501;48.214;11.350;2022-11-15T16:14:08;20.80;;;13.97;;
1024;SDS011;501;48.214;11.350;2022-11-15T16:16:34;19.47;;;13.50;;
1024;SDS011;501;48.214;11.350;2022-11-15T16:19:00;16.93;;;13.20;;
1024;SDS011;501;48.214;11.350;2022-11-15T16:21:26;19.17;;;13.27;;
1024;SDS011;501;48.214;11.350;2022-11-15T16:23:52;18.40;;;11.57;;
1024;SDS011;501;48.214;11.350;2022-11-15T16:26:22;19.57;;;11.83;;
1024;SDS011;501;48.214;11.350;2022-11-15T16:28:50;15.80;;;10.20;;
1024;SDS011;501;48.214;11.350;2022-11-15T16:31:16;12.33;;;8.03;;
1024;SDS011;501;48.214;11.350;2022-11-15T16:33:43;14.23;;;9.43;;
1024;SDS011;501;48.214;11.350;2022-11-15T16:36:22;11.50;;;8.63;;
1024;SDS011;501;48.214;11.350;2022-11-15T16:38:50;12.13;;;8.20;;
1024;SDS011;501;48.214;11.350;2022-11-15T16:41:16;12.03;;;7.90;;
1024;SDS011;501;48.214;11.350;2022-11-15T16:43:46;19.73;;;10.73;;
1024;SDS011;501;48.214;11.350;2022-11-15T16:46:13;12.47;;;9.93;;
1024;SDS011;501;48.214;11.350;2022-11-15T16:48:44;12.37;;;9.13;;
1024;SDS011;501;48.214;11.350;2022-11-15T16:51:10;9.77;;;8.77;;
1024;SDS011;501;48.214;11.350;2022-11-15T16:53:36;10.33;;;8.83;;
1024;SDS011;501;48.214;11.350;2022-11-15T16:56:01;11.57;;;7.37;;
1024;SDS011;501;48.214;11.350;2022-11-15T16:58:27;9.30;;;7.60;;
1024;SDS011;501;48.214;11.350;2022-11-15T17:00:53;12.97;;;8.00;;
1024;SDS011;501;48.214;11.350;2022-11-15T17:03:20;17.10;;;12.53;;
1024;SDS011;501;48.214;11.350;2022-11-15T17:05:48;12.73;;;9.30;;
1024;SDS011;501;48.214;11.350;2022-11-15T17:08:14;14.80;;;11.40;;
1024;SDS011;501;48.214;11.350;2022-11-15T17:10:40;15.73;;;11.40;;
1024;SDS011;501;48.214;11.350;2022-11-15T17:13:07;14.03;;;10.93;;
1024;SDS011;501;48.214;11.350;2022-11-15T17:15:35;39.80;;;27.53;;
1024;SDS011;501;48.214;11.350;2022-11-15T17:18:01;25.77;;;17.50;;